Time;durP1;ratioP1;P1;durP2;ratioP2;P2;SDS_P1;SDS_P2;PMS_P1;PMS_P2;Temp;Humidity;BMP_temperature;BMP_pressure;BME280_temperature;BME280_humidity;BME280_pressure;Samples;Min_cycle;Max_cycle;Signal;HPM_P1;HPM_P2
2020/12/19 00:00:48;;;;;;;46.68;26.15;;;;;;;-0.71;100.00;101576.23;1762087;80;21160;-57
2020/12/19 00:03:17;;;;;;;40.33;22.17;;;;;;;-0.72;100.00;101579.67;1758924;80;21254;-57
2020/12/19 00:05:45;;;;;;;39.83;22.22;;;;;;;-0.75;100.00;101573.00;1756522;80;21195;-57
2020/12/19 00:08:13;;;;;;;42.50;24.23;;;;;;;-0.77;100.00;101578.64;1761291;80;21094;-56
2020/12/19 00:10:41;;;;;;;48.98;25.30;;;;;;;-0.78;100.00;101578.27;1760877;80;21381;-57
2020/12/19 00:13:09;;;;;;;46.08;27.07;;;;;;;-0.80;100.00;101577.05;1726633;81;21156;-56
2020/12/19 00:15:37;;;;;;;52.70;27.10;;;;;;;-0.81;100.00;101570.73;1693235;83;21187;-56
2020/12/19 00:18:06;;;;;;;47.65;26.40;;;;;;;-0.82;100.00;101577.59;1763124;80;21237;-56
2020/12/19 00:20:34;;;;;;;45.70;24.05;;;;;;;-0.83;100.00;101574.66;1759217;81;21021;-56
2020/12/19 00:23:02;;;;;;;40.08;20.30;;;;;;;-0.84;100.00;101570.43;1762925;80;21275;-56
2020/12/19 00:25:31;;;;;;;45.65;24.55;;;;;;;-0.86;100.00;101574.81;1757217;81;21051;-55
2020/12/19 00:27:59;;;;;;;48.65;22.17;;;;;;;-0.87;100.00;101571.89;1762571;80;21129;-55
2020/12/19 00:30:27;;;;;;;49.40;24.12;;;;;;;-0.89;100.00;101575.42;1756782;81;21195;-56
2020/12/19 00:32:55;;;;;;;49.95;26.02;;;;;;;-0.91;100.00;101570.39;1757900;80;21561;-57
2020/12/19 00:35:23;;;;;;;48.00;25.25;;;;;;;-0.91;100.00;101572.95;1760093;81;21271;-56
2020/12/19 00:37:51;;;;;;;49.18;24.45;;;;;;;-0.89;100.00;101569.02;1758392;80;21100;-56
2020/12/19 00:40:20;;;;;;;45.35;24.27;;;;;;;-0.89;100.00;101563.91;1758725;80;21132;-56
2020/12/19 00:42:48;;;;;;;45.85;23.65;;;;;;;-0.89;100.00;101563.44;1762130;80;21131;-55
2020/12/19 00:45:16;;;;;;;46.42;23.77;;;;;;;-0.88;100.00;101562.53;1756128;81;21179;-58
2020/12/19 00:47:44;;;;;;;48.90;24.65;;;;;;;-0.86;100.00;101563.75;1763413;80;21722;-56
2020/12/19 00:50:12;;;;;;;44.42;23.00;;;;;;;-0.86;100.00;101561.19;1756249;80;21175;-56
2020/12/19 00:52:40;;;;;;;46.75;22.77;;;;;;;-0.85;100.00;101556.44;1760908;80;21077;-55
2020/12/19 00:55:09;;;;;;;45.28;21.93;;;;;;;-0.84;100.00;101559.37;1764714;80;21187;-56
2020/12/19 00:57:38;;;;;;;46.53;23.92;;;;;;;-0.85;100.00;101554.70;1760650;80;21159;-56
2020/12/19 01:00:08;;;;;;;43.33;21.73;;;;;;;-0.84;100.00;101548.67;1762134;80;21262;-56
2020/12/19 01:02:36;;;;;;;42.45;21.52;;;;;;;-0.82;100.00;101547.33;1760300;80;21586;-56
2020/12/19 01:05:08;;;;;;;38.02;21.15;;;;;;;-0.82;100.00;101541.75;1757887;80;21510;-56
2020/12/19 01:07:40;;;;;;;40.80;20.72;;;;;;;-0.83;100.00;101545.23;1761097;80;21155;-56
2020/12/19 01:10:09;;;;;;;47.05;23.73;;;;;;;-0.85;100.00;101541.91;1761296;80;21124;-56
2020/12/19 01:12:39;;;;;;;48.48;21.82;;;;;;;-0.86;100.00;101540.71;1759360;80;21213;-56
2020/12/19 01:15:08;;;;;;;53.87;25.72;;;;;;;-0.85;100.00;101535.96;1763210;81;21191;-56
2020/12/19 01:17:40;;;;;;;91.82;39.48;;;;;;;-0.85;100.00;101539.34;1758882;80;21286;-56
2020/12/19 01:20:07;;;;;;;;;;;;;;;-0.83;100.00;101534.16;1765975;80;21230;-56
2020/12/19 01:22:35;;;;;;;80.97;37.70;;;;;;;-0.82;100.00;101534.08;1761570;80;20307;-57
2020/12/19 01:25:03;;;;;;;91.08;38.95;;;;;;;-0.81;100.00;101535.72;1763028;81;21183;-56
2020/12/19 01:27:31;;;;;;;97.72;42.88;;;;;;;-0.81;100.00;101525.94;1761919;80;20958;-56
2020/12/19 01:30:00;;;;;;;78.70;36.93;;;;;;;-0.79;100.00;101524.96;1763008;81;21159;-57
2020/12/19 01:32:28;;;;;;;57.60;28.85;;;;;;;-0.77;100.00;101526.16;1761265;80;21509;-56
2020/12/19 01:34:57;;;;;;;54.35;27.45;;;;;;;-0.76;100.00;101527.38;1763385;81;21195;-57
2020/12/19 01:37:26;;;;;;;50.92;24.65;;;;;;;-0.75;100.00;101529.02;1760316;80;21330;-56
2020/12/19 01:39:54;;;;;;;65.55;30.62;;;;;;;-0.76;100.00;101522.25;1760962;80;21124;-57
2020/12/19 01:42:23;;;;;;;44.25;24.12;;;;;;;-0.76;100.00;101522.67;1759906;80;21136;-58
2020/12/19 01:44:51;;;;;;;51.98;26.07;;;;;;;-0.74;100.00;101522.98;1763110;80;21147;-58
2020/12/19 01:47:20;;;;;;;54.67;26.17;;;;;;;-0.72;100.00;101523.34;1758882;80;21202;-56
2020/12/19 01:49:48;;;;;;;50.43;24.32;;;;;;;-0.72;100.00;101526.73;1760970;80;21354;-57
2020/12/19 01:52:19;;;;;;;47.53;25.77;;;;;;;-0.71;100.00;101525.03;1763164;80;21136;-57
2020/12/19 01:54:48;;;;;;;48.42;24.90;;;;;;;-0.72;100.00;101521.61;1764232;80;21172;-57
2020/12/19 01:57:18;;;;;;;47.73;24.23;;;;;;;-0.74;100.00;101524.27;1762316;80;21024;-56
2020/12/19 01:59:46;;;;;;;42.75;24.35;;;;;;;-0.74;100.00;101520.42;1763331;81;21424;-57
2020/12/19 02:02:14;;;;;;;40.48;24.00;;;;;;;-0.72;100.00;101519.51;1761127;80;21203;-56
2020/12/19 02:04:42;;;;;;;37.75;21.02;;;;;;;-0.72;100.00;101519.51;1706931;81;21127;-56
2020/12/19 02:07:11;;;;;;;48.28;22.30;;;;;;;-0.75;100.00;101520.05;1762731;80;21100;-56
2020/12/19 02:09:40;;;;;;;41.77;22.48;;;;;;;-0.76;100.00;101518.41;1760428;81;21183;-57
2020/12/19 02:12:09;;;;;;;51.73;24.67;;;;;;;-0.75;100.00;101521.80;1763229;80;21104;-56
2020/12/19 02:17:15;;;;;;;71.30;35.67;;;;;;;-0.70;100.00;101513.88;1815280;76;22929;-55
2020/12/19 02:19:43;;;;;;;53.35;27.62;;;;;;;-0.76;100.00;101506.89;1781251;80;21091;-54
2020/12/19 02:22:11;;;;;;;41.10;22.93;;;;;;;-0.75;100.00;101507.25;1776788;80;21193;-57
2020/12/19 02:24:40;;;;;;;50.85;27.87;;;;;;;-0.74;100.00;101502.95;1773661;80;21041;-56
2020/12/19 02:27:08;;;;;;;52.83;26.95;;;;;;;-0.75;100.00;101502.13;1774043;80;21063;-57
2020/12/19 02:29:36;;;;;;;45.08;24.65;;;;;;;-0.76;100.00;101494.09;1773211;80;20954;-57
2020/12/19 02:32:04;;;;;;;41.68;22.42;;;;;;;-0.75;100.00;101500.03;1771211;80;20952;-57
2020/12/19 02:34:32;;;;;;;40.43;21.90;;;;;;;-0.74;100.00;101499.94;1769657;80;21216;-57
2020/12/19 02:37:00;;;;;;;43.58;22.32;;;;;;;-0.75;100.00;101497.02;1767906;80;21040;-55
2020/12/19 02:39:28;;;;;;;42.05;22.40;;;;;;;-0.76;100.00;101492.81;1767544;80;21015;-56
2020/12/19 02:41:56;;;;;;;40.48;22.32;;;;;;;-0.76;100.00;101490.25;1782005;79;20936;-55
2020/12/19 02:44:25;;;;;;;38.35;21.07;;;;;;;-0.75;100.00;101497.02;1783483;80;21140;-55
2020/12/19 02:46:54;;;;;;;37.50;21.42;;;;;;;-0.74;100.00;101498.66;1774143;79;21271;-55
2020/12/19 02:49:23;;;;;;;41.08;22.80;;;;;;;-0.75;100.00;101493.17;1768977;80;21011;-56
2020/12/19 02:51:52;;;;;;;45.05;21.27;;;;;;;-0.76;100.00;101490.25;1771061;79;20973;-55
2020/12/19 02:54:20;;;;;;;41.95;22.40;;;;;;;-0.75;100.00;101486.77;1780635;80;21037;-56
2020/12/19 02:56:48;;;;;;;43.87;23.32;;;;;;;-0.75;100.00;101487.23;1783538;79;21055;-55
2020/12/19 02:59:16;;;;;;;36.42;20.30;;;;;;;-0.72;100.00;101484.95;1770913;80;21268;-56
2020/12/19 03:01:44;;;;;;;37.80;21.65;;;;;;;-0.71;100.00;101480.22;1778411;80;21057;-55
2020/12/19 03:04:14;;;;;;;39.40;22.13;;;;;;;-0.71;100.00;101473.81;1771879;80;21013;-55
2020/12/19 03:06:42;;;;;;;44.98;23.22;;;;;;;-0.74;100.00;101474.80;1781446;79;21208;-55
2020/12/19 03:09:10;;;;;;;45.63;25.17;;;;;;;-0.76;100.00;101472.33;1774786;80;20992;-54
2020/12/19 03:11:40;;;;;;;43.50;23.40;;;;;;;-0.76;100.00;101465.08;1777674;80;21043;-56
2020/12/19 03:14:08;;;;;;;43.68;23.57;;;;;;;-0.78;100.00;101466.45;1775536;80;21045;-55
2020/12/19 03:16:36;;;;;;;44.60;25.10;;;;;;;-0.76;100.00;101469.77;1776280;80;21081;-55
2020/12/19 03:19:05;;;;;;;48.05;27.52;;;;;;;-0.76;100.00;101469.77;1779032;80;21134;-55
2020/12/19 03:21:33;;;;;;;43.70;23.30;;;;;;;-0.74;100.00;101469.22;1776306;79;21074;-54
2020/12/19 03:24:01;;;;;;;46.55;24.50;;;;;;;-0.72;100.00;101465.73;1778384;80;21267;-54
2020/12/19 03:26:29;;;;;;;35.78;19.30;;;;;;;-0.69;100.00;101470.70;1772042;79;21095;-54
2020/12/19 03:28:58;;;;;;;40.35;22.15;;;;;;;-0.70;100.00;101464.77;1782719;80;21152;-56
2020/12/19 03:31:26;;;;;;;34.05;19.37;;;;;;;-0.71;100.00;101466.96;1771878;80;21113;-56
2020/12/19 03:33:54;;;;;;;36.40;20.62;;;;;;;-0.72;100.00;101463.18;1778139;80;21010;-57
2020/12/19 03:36:23;;;;;;;34.05;18.67;;;;;;;-0.75;100.00;101463.73;1772596;80;21256;-57
2020/12/19 03:38:50;;;;;;;38.45;20.68;;;;;;;-0.76;100.00;101465.08;1781632;80;21072;-55
2020/12/19 03:41:19;;;;;;;39.20;18.85;;;;;;;-0.78;100.00;101463.88;1770531;79;21035;-55
2020/12/19 03:43:47;;;;;;;34.70;19.42;;;;;;;-0.80;100.00;101460.56;1777759;80;21161;-55
2020/12/19 03:46:16;;;;;;;34.43;20.60;;;;;;;-0.81;100.00;101461.94;1777092;79;21066;-55
2020/12/19 03:48:44;;;;;;;36.20;19.00;;;;;;;-0.82;100.00;101459.84;1774646;80;23621;-55
2020/12/19 03:51:12;;;;;;;34.65;19.50;;;;;;;-0.81;100.00;101462.76;1776752;79;21004;-55
2020/12/19 03:53:40;;;;;;;36.55;19.32;;;;;;;-0.82;100.00;101461.11;1773878;80;20967;-55
2020/12/19 03:56:08;;;;;;;38.67;20.60;;;;;;;-0.81;100.00;101461.48;1778166;80;21176;-55
2020/12/19 03:58:36;;;;;;;38.88;19.45;;;;;;;-0.81;100.00;101458.92;1776566;80;21179;-55
2020/12/19 04:01:04;;;;;;;36.00;20.60;;;;;;;-0.79;100.00;101463.52;1772297;79;21195;-55
2020/12/19 04:03:32;;;;;;;34.98;18.50;;;;;;;-0.79;100.00;101458.41;1771804;80;21265;-56
2020/12/19 04:06:01;;;;;;;35.65;19.73;;;;;;;-0.78;100.00;101462.61;1778925;80;21135;-55
2020/12/19 04:08:29;;;;;;;34.08;18.80;;;;;;;-0.76;100.00;101460.81;1770929;80;21005;-56
2020/12/19 04:10:57;;;;;;;38.58;21.15;;;;;;;-0.76;100.00;101463.37;1776068;80;21187;-55
2020/12/19 04:13:26;;;;;;;31.77;16.35;;;;;;;-0.76;100.00;101463.37;1775048;80;21195;-56
2020/12/19 04:15:54;;;;;;;32.08;17.35;;;;;;;-0.76;100.00;101463.37;1779303;80;20994;-56
2020/12/19 04:18:23;;;;;;;32.88;18.57;;;;;;;-0.76;100.00;101467.20;1777895;80;21082;-56
2020/12/19 04:20:51;;;;;;;30.15;18.10;;;;;;;-0.76;100.00;101468.91;1767062;80;21009;-56
2020/12/19 04:23:19;;;;;;;28.57;15.32;;;;;;;-0.78;100.00;101468.19;1770260;80;21020;-56
2020/12/19 04:25:49;;;;;;;24.07;14.00;;;;;;;-0.78;100.00;101469.00;1782172;80;21712;-56
2020/12/19 04:28:17;;;;;;;24.57;14.13;;;;;;;-0.79;100.00;101468.64;1765940;80;21167;-56
2020/12/19 04:30:45;;;;;;;21.77;12.68;;;;;;;-0.81;100.00;101467.87;1767391;80;21168;-55
2020/12/19 04:33:14;;;;;;;19.30;11.57;;;;;;;-0.81;100.00;101473.45;1766564;80;21103;-55
2020/12/19 04:35:41;;;;;;;17.77;11.15;;;;;;;-0.82;100.00;101467.52;1763921;80;21102;-55
2020/12/19 04:38:10;;;;;;;17.17;9.75;;;;;;;-0.81;100.00;101470.90;1761486;80;21194;-55
2020/12/19 04:40:38;;;;;;;17.07;10.25;;;;;;;-0.82;100.00;101477.75;1782633;80;21039;-56
2020/12/19 04:43:16;;;;;;;17.98;10.65;;;;;;;-0.83;100.00;101470.98;1775608;79;21039;-56
2020/12/19 04:45:45;;;;;;;18.62;10.38;;;;;;;-0.84;100.00;101469.31;1781237;80;20934;-56
2020/12/19 04:48:22;;;;;;;16.77;10.78;;;;;;;-0.83;100.00;101474.83;1773877;79;21160;-55
2020/12/19 04:50:50;;;;;;;17.40;10.68;;;;;;;-0.84;100.00;101474.44;1782099;80;21138;-55
2020/12/19 04:53:20;;;;;;;17.67;10.38;;;;;;;-0.85;100.00;101475.34;1777574;79;21183;-55
2020/12/19 04:55:48;;;;;;;22.50;11.33;;;;;;;-0.84;100.00;101478.27;1770454;80;21044;-56
2020/12/19 05:00:56;;;;;;;17.77;10.77;;;;;;;-0.82;100.00;101481.59;1869434;76;22796;-55
2020/12/19 05:03:24;;;;;;;18.12;10.78;;;;;;;-0.85;100.00;101480.47;1852810;77;20982;-55
2020/12/19 05:05:52;;;;;;;18.80;11.48;;;;;;;-0.85;100.00;101485.59;1854562;77;21098;-55
2020/12/19 05:08:20;;;;;;;17.23;11.08;;;;;;;-0.82;100.00;101488.45;1815872;77;21329;-56
2020/12/19 05:10:49;;;;;;;18.98;12.18;;;;;;;-0.84;100.00;101488.52;1849857;77;21373;-57
2020/12/19 05:13:20;;;;;;;20.12;11.73;;;;;;;-0.84;100.00;101489.79;1854831;77;20946;-56
2020/12/19 05:15:50;;;;;;;18.50;12.45;;;;;;;-0.83;100.00;101488.91;1823857;77;21005;-56
2020/12/19 05:18:18;;;;;;;19.20;13.43;;;;;;;-0.80;100.00;101493.02;1852840;77;21188;-56
2020/12/19 05:20:47;;;;;;;20.77;13.30;;;;;;;-0.80;100.00;101493.02;1823616;77;21001;-56
2020/12/19 05:23:16;;;;;;;24.18;15.20;;;;;;;-0.79;100.00;101499.82;1854639;77;20946;-57
2020/12/19 05:25:44;;;;;;;22.48;14.73;;;;;;;-0.79;100.00;101498.08;1853114;77;21021;-57
2020/12/19 05:28:15;;;;;;;27.60;16.62;;;;;;;-0.78;100.00;101501.01;1795418;77;20978;-57
2020/12/19 05:30:43;;;;;;;25.15;15.80;;;;;;;-0.76;100.00;101498.36;1849704;77;21318;-56
2020/12/19 05:33:11;;;;;;;25.32;16.35;;;;;;;-0.76;100.00;101500.48;1846312;77;20982;-55
2020/12/19 05:35:39;;;;;;;31.00;18.77;;;;;;;-0.76;100.00;101503.48;1851057;77;20938;-56
2020/12/19 05:38:07;;;;;;;29.23;19.07;;;;;;;-0.77;100.00;101503.94;1850563;77;20954;-55
2020/12/19 05:40:36;;;;;;;28.02;17.10;;;;;;;-0.78;100.00;101506.12;1849168;77;20943;-55
2020/12/19 05:43:04;;;;;;;30.52;19.52;;;;;;;-0.76;100.00;101506.03;1857958;77;21027;-57
2020/12/19 05:45:32;;;;;;;29.32;19.90;;;;;;;-0.76;100.00;101507.31;1841749;77;21021;-56
2020/12/19 05:48:00;;;;;;;34.20;22.05;;;;;;;-0.75;100.00;101503.88;1854644;77;21128;-56
2020/12/19 05:50:28;;;;;;;31.62;21.62;;;;;;;-0.77;100.00;101505.21;1823761;77;21040;-56
2020/12/19 05:52:57;;;;;;;28.87;19.27;;;;;;;-0.75;100.00;101511.09;1856505;77;21413;-57
2020/12/19 05:55:26;;;;;;;32.35;22.07;;;;;;;-0.73;100.00;101511.00;1854472;77;21352;-55
2020/12/19 05:57:57;;;;;;;34.18;19.98;;;;;;;-0.71;100.00;101509.66;1854354;77;20954;-57
2020/12/19 06:00:24;;;;;;;31.52;20.77;;;;;;;-0.70;100.00;101511.31;1849004;77;21084;-55
2020/12/19 06:02:52;;;;;;;36.05;22.98;;;;;;;-0.69;100.00;101517.62;1857410;77;21025;-56
2020/12/19 06:05:20;;;;;;;36.13;22.98;;;;;;;-0.69;100.00;101520.64;1845143;77;21005;-57
2020/12/19 06:07:49;;;;;;;34.08;21.27;;;;;;;-0.68;100.00;101520.58;1847570;77;21246;-56
2020/12/19 06:10:18;;;;;;;35.90;22.37;;;;;;;-0.67;100.00;101523.95;1854508;77;21165;-56
2020/12/19 06:12:58;;;;;;;34.30;21.77;;;;;;;-0.68;100.00;101521.00;1856066;77;21077;-55
2020/12/19 06:16:05;;;;;;;34.78;20.97;;;;;;;-0.68;100.00;101528.69;1851484;77;21142;-56
2020/12/19 06:18:50;;;;;;;33.30;21.37;;;;;;;-0.68;100.00;101528.69;1852850;77;21139;-56
2020/12/19 06:21:18;;;;;;;35.98;22.87;;;;;;;-0.68;100.00;101529.53;1841415;77;21266;-56
2020/12/19 06:23:46;;;;;;;44.95;27.80;;;;;;;-0.68;100.00;101526.13;1852163;77;21017;-56
2020/12/19 06:26:15;;;;;;;43.13;27.10;;;;;;;-0.69;100.00;101526.58;1852274;77;20994;-56
2020/12/19 06:28:45;;;;;;;37.35;23.52;;;;;;;-0.66;100.00;101530.73;1848619;77;21029;-56
2020/12/19 06:31:21;;;;;;;47.10;28.02;;;;;;;-0.65;100.00;101524.69;1847169;77;21077;-56
2020/12/19 06:33:52;;;;;;;40.03;25.05;;;;;;;-0.63;100.00;101528.02;1846933;77;21457;-56
2020/12/19 06:36:28;;;;;;;42.03;25.12;;;;;;;-0.64;100.00;101528.93;1846823;77;21167;-56
2020/12/19 06:39:09;;;;;;;41.18;24.35;;;;;;;-0.64;100.00;101528.93;1853718;77;21459;-56
2020/12/19 06:41:49;;;;;;;39.10;22.60;;;;;;;-0.64;100.00;101526.37;1849081;77;21095;-55
2020/12/19 06:44:30;;;;;;;40.08;24.55;;;;;;;-0.65;100.00;101534.93;1846302;77;20958;-56
2020/12/19 06:47:01;;;;;;;45.12;24.05;;;;;;;-0.68;100.00;101538.50;1848986;77;21368;-55
2020/12/19 06:49:35;;;;;;;45.43;26.35;;;;;;;-0.68;100.00;101536.36;1844820;77;21069;-55
2020/12/19 06:52:14;;;;;;;38.20;23.47;;;;;;;-0.67;100.00;101536.77;1848014;77;21480;-55
2020/12/19 06:54:46;;;;;;;35.38;21.40;;;;;;;-0.64;100.00;101534.05;1839874;77;21014;-57
2020/12/19 06:57:33;;;;;;;41.05;25.30;;;;;;;-0.63;100.00;101540.36;1833997;77;21066;-57
2020/12/19 07:00:25;;;;;;;39.40;22.85;;;;;;;-0.60;100.00;101538.11;1843449;77;22219;-57
2020/12/19 07:02:57;;;;;;;35.28;22.22;;;;;;;-0.58;100.00;101541.39;1831374;77;20966;-57
2020/12/19 07:05:33;;;;;;;36.65;22.58;;;;;;;-0.52;100.00;101539.80;1835032;77;20953;-57
2020/12/19 07:08:25;;;;;;;43.02;26.57;;;;;;;-0.49;100.00;101539.66;1835502;77;21160;-58
2020/12/19 07:10:53;;;;;;;40.17;25.85;;;;;;;-0.49;100.00;101539.66;1836104;77;21106;-57
2020/12/19 07:13:21;;;;;;;43.52;30.00;;;;;;;-0.42;100.00;101545.26;1833345;77;21193;-57
2020/12/19 07:15:51;;;;;;;43.70;26.95;;;;;;;-0.37;100.00;101537.72;1815972;77;21148;-58
2020/12/19 07:18:33;;;;;;;40.90;25.02;;;;;;;-0.32;100.00;101542.14;1838921;77;21211;-57
2020/12/19 07:21:06;;;;;;;34.08;22.15;;;;;;;-0.25;100.00;101542.65;1834879;77;21554;-57
2020/12/19 07:23:36;;;;;;;33.80;22.45;;;;;;;-0.21;100.00;101544.14;1834695;77;21063;-58
2020/12/19 07:26:05;;;;;;;41.73;25.88;;;;;;;-0.17;100.00;101550.75;1843423;77;21259;-59
2020/12/19 07:28:33;;;;;;;35.25;22.62;;;;;;;-0.14;100.00;101548.48;1835595;77;21006;-59
2020/12/19 07:31:01;;;;;;;33.90;22.45;;;;;;;-0.13;100.00;101545.00;1762735;81;21554;-60
2020/12/19 07:33:29;;;;;;;32.10;20.62;;;;;;;-0.14;100.00;101545.47;1786091;79;21175;-60
2020/12/19 07:35:58;;;;;;;32.50;21.12;;;;;;;-0.14;100.00;101535.67;1813196;79;21157;-61
2020/12/19 07:38:26;;;;;;;35.85;21.23;;;;;;;-0.14;100.00;101537.78;1782485;80;21145;-57
2020/12/19 07:40:55;;;;;;;38.02;23.60;;;;;;;-0.16;100.00;101539.58;1807408;79;20986;-58
2020/12/19 07:43:24;;;;;;;35.13;20.45;;;;;;;-0.16;100.00;101542.14;1783165;80;21026;-58
2020/12/19 07:45:57;;;;;;;32.50;20.45;;;;;;;-0.15;100.00;101546.81;1813616;78;21038;-60
2020/12/19 07:48:25;;;;;;;31.45;19.15;;;;;;;-0.15;100.00;101536.13;1785053;80;21169;-58
2020/12/19 07:50:53;;;;;;;29.70;18.80;;;;;;;-0.13;100.00;101533.02;1812600;79;21206;-57
2020/12/19 07:53:21;;;;;;;32.28;22.27;;;;;;;-0.11;100.00;101526.55;1786163;80;21061;-57
2020/12/19 07:55:50;;;;;;;30.17;19.70;;;;;;;-0.08;100.00;101526.35;1812790;79;21038;-58
2020/12/19 07:58:19;;;;;;;27.25;17.85;;;;;;;-0.07;100.00;101526.75;1814400;79;20994;-57
2020/12/19 08:00:48;;;;;;;28.60;17.05;;;;;;;-0.05;100.00;101527.47;1808861;79;21002;-57
2020/12/19 08:03:16;;;;;;;30.20;18.90;;;;;;;-0.05;100.00;101525.73;1813780;79;21262;-60
2020/12/19 08:05:46;;;;;;;27.65;16.37;;;;;;;-0.04;100.00;101519.72;1806781;79;21006;-61
2020/12/19 08:08:15;;;;;;;25.80;18.27;;;;;;;0.02;100.00;101513.41;1756454;79;20915;-59
2020/12/19 08:10:44;;;;;;;26.07;17.67;;;;;;;0.05;100.00;101517.10;1805236;79;21010;-61
2020/12/19 08:13:12;;;;;;;28.38;17.42;;;;;;;0.08;100.00;101510.53;1808889;79;21164;-59
2020/12/19 08:15:40;;;;;;;25.10;15.43;;;;;;;0.10;100.00;101508.69;1797538;79;21156;-60
2020/12/19 08:18:08;;;;;;;28.38;18.60;;;;;;;0.10;100.00;101507.41;1812581;79;21109;-61
2020/12/19 08:20:37;;;;;;;26.23;17.15;;;;;;;0.09;100.00;101502.38;1811429;79;21014;-62
2020/12/19 08:23:07;;;;;;;28.20;17.45;;;;;;;0.10;100.00;101499.72;1792007;79;21152;-62
2020/12/19 08:25:36;;;;;;;25.43;15.45;;;;;;;0.13;100.00;101501.30;1790280;79;21184;-63
2020/12/19 08:28:04;;;;;;;26.17;16.17;;;;;;;0.12;100.00;101505.59;1810812;79;21211;-61
2020/12/19 08:30:33;;;;;;;22.00;14.45;;;;;;;0.11;100.00;101501.82;1779260;80;21077;-64
2020/12/19 08:33:10;;;;;;;22.87;14.53;;;;;;;0.10;100.00;101502.28;1806589;79;21180;-59
2020/12/19 08:35:42;;;;;;;22.10;14.98;;;;;;;0.09;100.00;101488.28;1784290;80;21784;-62
2020/12/19 08:38:21;;;;;;;20.92;14.18;;;;;;;0.09;100.00;101490.38;1811106;79;21170;-61
2020/12/19 08:40:50;;;;;;;25.17;16.37;;;;;;;0.05;100.00;101497.87;1779614;80;21389;-59
2020/12/19 08:43:20;;;;;;;24.90;15.83;;;;;;;0.01;100.00;101495.11;1808242;79;21128;-60
2020/12/19 08:45:49;;;;;;;24.50;15.95;;;;;;;-0.02;100.00;101487.13;1776870;80;21135;-63
2020/12/19 08:48:23;;;;;;;23.02;14.78;;;;;;;-0.02;100.00;101479.89;1787193;80;21129;-59
2020/12/19 08:50:53;;;;;;;25.55;16.20;;;;;;;-0.03;100.00;101485.94;1778372;80;21582;-60
2020/12/19 08:53:26;;;;;;;22.10;14.68;;;;;;;-0.04;100.00;101482.55;1811561;79;21334;-61
2020/12/19 08:55:55;;;;;;;22.30;15.48;;;;;;;-0.04;100.00;101485.55;1784846;80;21188;-61
2020/12/19 08:58:26;;;;;;;26.30;16.70;;;;;;;-0.07;100.00;101478.88;1809569;78;21018;-64
2020/12/19 09:00:57;;;;;;;23.45;15.58;;;;;;;-0.10;100.00;101481.59;1786419;80;21425;-60
2020/12/19 09:03:30;;;;;;;30.00;19.12;;;;;;;-0.09;100.00;101481.95;1792638;79;20935;-64
2020/12/19 09:06:04;;;;;;;27.30;16.10;;;;;;;-0.11;100.00;101481.69;1789942;79;21448;-63
2020/12/19 09:08:42;;;;;;;26.40;16.12;;;;;;;-0.14;100.00;101479.30;1810008;79;21026;-65
2020/12/19 09:11:27;;;;;;;22.65;14.25;;;;;;;-0.17;100.00;101473.05;1778590;79;21018;-65
2020/12/19 09:14:09;;;;;;;23.80;14.78;;;;;;;-0.20;100.00;101477.05;1812782;79;20982;-61
2020/12/19 09:16:52;;;;;;;27.37;15.53;;;;;;;-0.27;100.00;101474.81;1784438;79;21089;-65
2020/12/19 09:19:20;;;;;;;32.85;21.77;;;;;;;-0.31;100.00;101475.06;1792435;79;21431;-64
2020/12/19 09:21:55;;;;;;;183.78;96.42;;;;;;;-0.36;100.00;101469.38;1793156;79;21072;-62
2020/12/19 09:24:23;;;;;;;133.22;72.22;;;;;;;-0.40;100.00;101469.99;1806485;79;21735;-62
2020/12/19 09:26:52;;;;;;;121.87;78.05;;;;;;;-0.42;100.00;101468.41;1779027;80;21097;-62
2020/12/19 09:29:20;;;;;;;66.47;44.67;;;;;;;-0.42;100.00;101458.98;1780404;80;21159;-65
2020/12/19 09:31:49;;;;;;;68.62;45.80;;;;;;;-0.40;100.00;101463.59;1812583;79;21362;-64
2020/12/19 09:34:23;;;;;;;56.45;41.53;;;;;;;-0.39;100.00;101461.84;1812524;79;21033;-64
2020/12/19 09:36:52;;;;;;;43.15;33.67;;;;;;;-0.39;100.00;101460.11;1812196;79;21120;-62
2020/12/19 09:39:20;;;;;;;42.20;29.15;;;;;;;-0.40;100.00;101457.19;1812421;79;21037;-64
2020/12/19 09:41:48;;;;;;;36.85;23.73;;;;;;;-0.40;100.00;101455.08;1782941;80;21058;-62
2020/12/19 09:44:17;;;;;;;37.67;23.83;;;;;;;-0.42;100.00;101456.42;1803227;79;21204;-62
2020/12/19 09:46:46;;;;;;;33.80;20.40;;;;;;;-0.42;100.00;101458.98;1786482;80;21145;-62
2020/12/19 09:49:14;;;;;;;30.25;20.40;;;;;;;-0.39;100.00;101454.98;1795353;79;20962;-63
2020/12/19 09:51:42;;;;;;;32.65;20.23;;;;;;;-0.37;100.00;101460.87;1793613;79;21223;-63
2020/12/19 09:54:11;;;;;;;31.20;20.62;;;;;;;-0.36;100.00;101450.98;1791166;79;21617;-62
2020/12/19 09:56:39;;;;;;;32.00;20.02;;;;;;;-0.34;100.00;101453.45;1794810;79;21402;-61
2020/12/19 09:59:07;;;;;;;29.60;17.87;;;;;;;-0.32;100.00;101448.62;1791835;79;21540;-64
2020/12/19 10:01:36;;;;;;;33.73;19.32;;;;;;;-0.29;100.00;101452.30;1796645;79;21614;-62
2020/12/19 10:04:04;;;;;;;34.33;20.77;;;;;;;-0.27;100.00;101450.47;1787214;79;21029;-62
2020/12/19 10:06:33;;;;;;;39.05;22.95;;;;;;;-0.27;100.00;101449.19;1792217;79;20965;-61
2020/12/19 10:09:01;;;;;;;32.95;20.97;;;;;;;-0.27;100.00;101446.63;1800679;79;21204;-62
2020/12/19 10:11:29;;;;;;;34.27;23.30;;;;;;;-0.25;100.00;101446.56;1783579;80;21101;-61
2020/12/19 10:13:57;;;;;;;37.65;24.87;;;;;;;-0.22;100.00;101446.86;1795692;79;21155;-61
2020/12/19 10:16:25;;;;;;;40.33;25.72;;;;;;;-0.20;100.00;101446.30;1809269;79;21228;-62
2020/12/19 10:18:54;;;;;;;35.05;21.75;;;;;;;-0.22;100.00;101440.45;1783350;80;21145;-63
2020/12/19 10:21:22;;;;;;;37.25;25.57;;;;;;;-0.21;100.00;101440.36;1801807;79;21311;-63
2020/12/19 10:23:50;;;;;;;34.70;22.85;;;;;;;-0.23;100.00;101437.03;1806209;79;21196;-62
2020/12/19 10:26:19;;;;;;;43.45;29.02;;;;;;;-0.23;100.00;101437.03;1812768;79;21129;-63
2020/12/19 10:28:48;;;;;;;35.80;24.77;;;;;;;-0.22;100.00;101435.33;1812378;79;21089;-64
2020/12/19 10:31:16;;;;;;;30.08;19.23;;;;;;;-0.21;100.00;101435.69;1810220;79;21476;-64
2020/12/19 10:33:44;;;;;;;30.48;19.27;;;;;;;-0.20;100.00;101431.75;1811894;79;21295;-63
2020/12/19 10:36:16;;;;;;;32.05;20.10;;;;;;;-0.20;100.00;101438.61;1806062;79;21171;-63
2020/12/19 10:38:44;;;;;;;35.15;23.18;;;;;;;-0.18;100.00;101435.53;1811908;79;21220;-62
2020/12/19 10:41:15;;;;;;;30.68;20.62;;;;;;;-0.14;100.00;101428.86;1812781;79;21392;-66
2020/12/19 10:43:43;;;;;;;29.57;18.57;;;;;;;-0.12;100.00;101432.14;1812181;79;21141;-62
2020/12/19 10:46:12;;;;;;;32.65;19.32;;;;;;;-0.12;100.00;101430.05;1809863;79;21190;-62
2020/12/19 10:48:40;;;;;;;30.57;19.07;;;;;;;-0.16;100.00;101424.26;1811789;79;21168;-62
2020/12/19 10:51:08;;;;;;;31.17;19.48;;;;;;;-0.17;100.00;101424.36;1810720;79;21148;-63
2020/12/19 10:53:39;;;;;;;34.45;20.10;;;;;;;-0.16;100.00;101423.44;1815178;79;20978;-61
2020/12/19 10:56:07;;;;;;;36.70;21.75;;;;;;;-0.16;100.00;101422.16;1780366;79;21144;-62
2020/12/19 10:58:35;;;;;;;32.40;21.57;;;;;;;-0.12;100.00;101414.20;1815207;77;21352;-64
2020/12/19 11:01:05;;;;;;;31.42;19.45;;;;;;;-0.08;100.00;101418.25;1810467;79;21156;-62
2020/12/19 11:03:33;;;;;;;29.15;19.60;;;;;;;-0.05;100.00;101412.13;1813969;79;21630;-61
2020/12/19 11:06:02;;;;;;;31.17;19.90;;;;;;;-0.04;100.00;101408.65;1809092;78;21128;-61
2020/12/19 11:08:30;;;;;;;30.12;17.65;;;;;;;-0.02;100.00;101414.53;1821330;77;21133;-64
2020/12/19 11:11:00;;;;;;;29.57;19.70;;;;;;;0.01;100.00;101410.52;1806433;79;21552;-62
2020/12/19 11:13:28;;;;;;;38.15;24.52;;;;;;;0.02;100.00;101409.59;1816531;78;21169;-62
2020/12/19 11:15:58;;;;;;;35.40;21.10;;;;;;;0.05;100.00;101415.84;1814240;78;21014;-63
2020/12/19 11:18:26;;;;;;;31.42;20.05;;;;;;;0.10;100.00;101412.55;1813586;79;21021;-63